createdAt,value
2019-01-03T00:00:01.331Z,92.30
2019-01-03T00:03:04.310Z,93.60
2019-01-03T00:06:05.287Z,94.10
2019-01-03T00:09:02.189Z,95.00
2019-01-03T00:12:04.322Z,95.40
2019-01-03T00:15:09.735Z,95.40
2019-01-03T00:18:12.485Z,96.20
2019-01-03T00:21:13.327Z,95.90
2019-01-03T00:24:08.589Z,96.40
2019-01-03T00:27:10.963Z,97.50
2019-01-03T00:30:13.081Z,98.50
2019-01-03T00:33:13.806Z,98.90
2019-01-03T00:36:20.594Z,99.30
2019-01-03T00:39:22.713Z,96.00
2019-01-03T00:42:29.722Z,96.10
2019-01-03T00:45:31.890Z,97.90
2019-01-03T00:48:32.698Z,96.90
2019-01-03T00:51:22.026Z,96.50
2019-01-03T00:54:30.356Z,96.00
2019-01-03T00:57:31.651Z,95.90
2019-01-03T01:00:32.263Z,97.10
2019-01-03T01:03:33.167Z,97.10
2019-01-03T01:06:35.147Z,97.00
2019-01-03T01:09:38.094Z,97.30
2019-01-03T01:16:06.358Z,97.10
2019-01-03T01:18:57.029Z,96.40
2019-01-03T01:22:07.094Z,96.20
2019-01-03T01:25:08.384Z,95.80
2019-01-03T01:27:59.050Z,96.40
2019-01-03T01:31:07.357Z,96.90
2019-01-03T01:34:01.982Z,97.10
2019-01-03T01:37:11.802Z,98.00
2019-01-03T01:40:12.188Z,98.10
2019-01-03T01:43:14.119Z,99.90
2019-01-03T01:46:21.202Z,99.90
2019-01-03T01:49:26.830Z,99.90
2019-01-03T01:52:35.638Z,99.90
2019-01-03T01:55:26.306Z,99.90
2019-01-03T01:58:36.111Z,99.90
2019-01-03T02:01:37.090Z,99.90
2019-01-03T02:04:39.106Z,99.90
2019-01-03T02:07:41.205Z,99.90
2019-01-03T02:10:49.519Z,99.90
2019-01-03T02:13:52.019Z,99.90
2019-01-03T02:17:00.577Z,99.90
2019-01-03T02:20:01.294Z,99.90
2019-01-03T02:23:01.399Z,99.90
2019-01-03T02:26:02.683Z,99.40
2019-01-03T02:29:09.578Z,94.70
2019-01-03T02:32:10.347Z,91.70
2019-01-03T02:35:13.038Z,91.80
2019-01-03T02:38:13.902Z,91.70
2019-01-03T02:41:14.771Z,91.70
2019-01-03T02:44:15.553Z,92.50
2019-01-03T02:47:18.383Z,93.90
2019-01-03T02:50:19.174Z,95.80
2019-01-03T02:53:19.963Z,98.10
2019-01-03T02:56:26.641Z,99.90
2019-01-03T02:59:29.600Z,99.90
2019-01-03T03:02:25.722Z,99.90
2019-01-03T03:05:23.311Z,99.90
2019-01-03T03:08:25.315Z,99.90
2019-01-03T03:11:26.294Z,99.90
2019-01-03T03:14:27.162Z,99.90
2019-01-03T03:17:28.217Z,99.90
2019-01-03T03:20:30.892Z,99.90
2019-01-03T03:23:32.074Z,99.90
2019-01-03T03:26:26.828Z,99.90
2019-01-03T03:29:36.687Z,99.90
2019-01-03T03:32:37.704Z,99.90
2019-01-03T03:35:38.729Z,99.90
2019-01-03T03:38:39.596Z,94.80
2019-01-03T03:41:41.989Z,95.30
2019-01-03T03:44:50.744Z,97.40
2019-01-03T03:47:53.571Z,99.70
2019-01-03T03:50:54.535Z,99.90
2019-01-03T03:53:56.027Z,99.90
2019-01-03T03:57:02.627Z,99.90
2019-01-03T04:00:09.428Z,94.90
2019-01-03T04:03:12.153Z,90.00
2019-01-03T04:06:12.985Z,87.10
2019-01-03T04:09:19.910Z,89.50
2019-01-03T04:12:19.240Z,86.70
2019-01-03T04:15:22.122Z,81.90
2019-01-03T04:18:24.513Z,83.10
2019-01-03T04:21:25.433Z,83.50
2019-01-03T04:24:26.406Z,84.50
2019-01-03T04:27:27.360Z,84.10
2019-01-03T04:30:25.513Z,82.90
2019-01-03T04:33:28.138Z,77.70
2019-01-03T04:36:23.995Z,78.80
2019-01-03T04:39:26.742Z,77.10
2019-01-03T04:42:27.288Z,71.90
2019-01-03T04:45:31.134Z,72.80
2019-01-03T04:48:33.326Z,75.20
2019-01-03T04:51:34.038Z,75.00
2019-01-03T04:54:40.575Z,74.70
2019-01-03T04:57:31.318Z,75.80
2019-01-03T05:00:39.654Z,77.20
2019-01-03T05:03:42.214Z,80.90
2019-01-03T05:06:43.085Z,80.20
2019-01-03T05:09:44.032Z,81.80
2019-01-03T05:12:45.050Z,83.30
2019-01-03T05:15:52.058Z,85.30
2019-01-03T05:18:54.668Z,83.30
2019-01-03T05:21:55.534Z,84.20
2019-01-03T05:24:56.348Z,85.90
2019-01-03T05:27:57.221Z,86.20
2019-01-03T05:30:56.221Z,83.90
2019-01-03T05:34:16.659Z,80.40
2019-01-03T05:37:17.451Z,83.30
2019-01-03T05:40:19.087Z,84.60
2019-01-03T05:43:20.362Z,81.40
2019-01-03T05:46:23.049Z,80.20
2019-01-03T05:49:23.982Z,78.90
2019-01-03T05:52:24.967Z,75.50
2019-01-03T05:55:25.706Z,76.30
2019-01-03T05:58:28.091Z,76.60
2019-01-03T06:01:31.872Z,78.20
2019-01-03T06:04:40.291Z,77.10
2019-01-03T06:07:42.715Z,77.20
2019-01-03T06:10:43.663Z,77.10
2019-01-03T06:13:44.235Z,78.90
2019-01-03T06:16:45.155Z,79.30
2019-01-03T06:19:48.711Z,77.60
2019-01-03T06:22:51.647Z,75.30
2019-01-03T06:25:52.802Z,73.60
2019-01-03T06:28:54.323Z,76.20
2019-01-03T06:31:43.618Z,76.90
2019-01-03T06:34:51.973Z,78.00
2019-01-03T06:37:54.906Z,78.30
2019-01-03T06:40:55.788Z,79.80
2019-01-03T06:44:02.691Z,79.20
2019-01-03T06:47:05.442Z,80.50
2019-01-03T06:50:07.579Z,81.80
2019-01-03T06:53:08.404Z,81.50
2019-01-03T06:56:06.926Z,83.10
2019-01-03T06:59:07.257Z,81.50
2019-01-03T07:02:09.794Z,81.10
2019-01-03T07:05:19.762Z,83.20
2019-01-03T07:08:20.707Z,81.70
2019-01-03T07:11:22.177Z,79.50
2019-01-03T07:14:23.490Z,78.50
2019-01-03T07:17:30.442Z,74.90
2019-01-03T07:20:39.194Z,73.80
2019-01-03T07:23:42.171Z,72.30
2019-01-03T07:26:43.716Z,68.70
2019-01-03T07:29:44.590Z,65.00
2019-01-03T07:32:45.539Z,64.00
2019-01-03T07:35:49.522Z,62.70
2019-01-03T07:38:52.258Z,63.10
2019-01-03T07:41:59.370Z,62.30
2019-01-03T07:45:07.879Z,63.30
2019-01-03T07:48:10.368Z,61.70
2019-01-03T07:51:11.474Z,63.00
2019-01-03T07:54:03.607Z,64.10
2019-01-03T07:57:05.975Z,65.00
2019-01-03T08:00:07.486Z,65.80
2019-01-03T08:03:08.242Z,65.20
2019-01-03T08:06:05.438Z,64.80
2019-01-03T08:09:07.950Z,62.70
2019-01-03T08:12:04.349Z,62.90
2019-01-03T08:15:06.764Z,61.10
2019-01-03T08:21:13.516Z,58.30
2019-01-03T08:24:14.064Z,57.30
2019-01-03T08:27:22.254Z,57.10
2019-01-03T08:30:24.886Z,58.20
2019-01-03T08:33:25.707Z,57.20
2019-01-03T08:36:27.808Z,57.80
2019-01-03T08:39:30.598Z,57.40
2019-01-03T08:42:31.466Z,57.40
2019-01-03T08:45:32.075Z,57.20
2019-01-03T08:48:38.931Z,57.40
2019-01-03T08:51:41.875Z,57.80
2019-01-03T08:54:42.391Z,57.90
2019-01-03T08:57:43.148Z,57.90
2019-01-03T09:03:53.078Z,57.80
2019-01-03T09:06:56.523Z,57.50
2019-01-03T09:09:59.354Z,57.70
2019-01-03T09:13:00.286Z,57.50
2019-01-03T09:16:00.986Z,57.70
2019-01-03T09:19:02.163Z,58.40
2019-01-03T09:21:54.594Z,58.90
2019-01-03T09:24:57.287Z,58.90
2019-01-03T09:27:56.230Z,60.30
2019-01-03T09:30:58.998Z,59.50
2019-01-03T09:34:01.682Z,59.90
2019-01-03T09:36:55.387Z,59.80
2019-01-03T09:39:58.286Z,59.70
2019-01-03T09:42:58.974Z,60.70
2019-01-03T09:45:44.189Z,59.90
2019-01-03T09:48:24.911Z,59.00
2019-01-03T09:51:06.667Z,59.10
2019-01-03T09:53:48.626Z,59.20
2019-01-03T09:56:33.396Z,59.30
2019-01-03T09:59:15.639Z,57.50
2019-01-03T10:01:57.840Z,57.50
2019-01-03T10:04:40.438Z,58.10
2019-01-03T10:07:22.947Z,57.90
2019-01-03T10:10:04.875Z,57.90
2019-01-03T10:12:47.051Z,58.10
2019-01-03T10:15:28.986Z,57.10
2019-01-03T10:18:10.742Z,57.00
2019-01-03T10:20:52.940Z,57.10
2019-01-03T10:23:34.875Z,58.00
2019-01-03T10:26:16.618Z,57.30
2019-01-03T10:28:58.784Z,58.70
2019-01-03T10:31:40.683Z,57.80
2019-01-03T10:34:23.065Z,57.10
2019-01-03T10:37:03.442Z,57.80
2019-01-03T10:39:52.848Z,57.40
2019-01-03T10:42:36.207Z,57.90
2019-01-03T10:45:18.041Z,58.80
2019-01-03T10:48:00.290Z,57.90
2019-01-03T10:50:40.799Z,59.50
2019-01-03T10:53:30.130Z,59.30
2019-01-03T10:56:13.854Z,58.80
2019-01-03T10:58:55.883Z,58.00
2019-01-03T11:01:37.783Z,58.70
2019-01-03T11:04:20.010Z,58.40
2019-01-03T11:07:01.750Z,58.40
2019-01-03T11:09:43.454Z,59.60
2019-01-03T11:12:25.291Z,60.60
2019-01-03T11:15:07.354Z,62.10
2019-01-03T11:17:49.446Z,60.80
2019-01-03T11:20:31.753Z,61.40
2019-01-03T11:23:13.699Z,60.50
2019-01-03T11:25:55.608Z,59.80
2019-01-03T11:28:38.183Z,60.50
2019-01-03T11:31:19.962Z,61.20
2019-01-03T11:34:02.086Z,60.60
2019-01-03T11:36:44.550Z,60.40
2019-01-03T11:39:26.881Z,60.70
2019-01-03T11:42:08.889Z,61.60
2019-01-03T11:44:51.286Z,61.80
2019-01-03T11:47:33.737Z,61.30
2019-01-03T11:50:16.020Z,61.60
2019-01-03T11:52:57.772Z,62.40
2019-01-03T11:55:39.836Z,61.00
2019-01-03T11:58:22.047Z,60.60
2019-01-03T12:01:03.818Z,59.80
2019-01-03T12:03:45.911Z,60.90
2019-01-03T12:06:27.762Z,59.10
2019-01-03T12:09:09.787Z,59.90
2019-01-03T12:11:51.942Z,59.40
2019-01-03T12:14:33.770Z,61.10
2019-01-03T12:17:15.517Z,61.50
2019-01-03T12:19:57.186Z,61.30
2019-01-03T12:22:39.290Z,62.00
2019-01-03T12:25:21.428Z,62.80
2019-01-03T12:28:03.237Z,62.90
2019-01-03T12:30:45.374Z,63.60
2019-01-03T12:33:27.404Z,63.10
2019-01-03T12:36:09.806Z,62.60
2019-01-03T12:38:51.807Z,63.50
2019-01-03T12:41:33.739Z,63.40
2019-01-03T12:44:15.609Z,62.40
2019-01-03T12:46:57.330Z,63.70
2019-01-03T12:49:39.023Z,62.80
2019-01-03T12:52:20.678Z,62.80
2019-01-03T12:55:02.587Z,64.50
2019-01-03T12:57:44.318Z,63.60
2019-01-03T13:00:26.066Z,63.80
2019-01-03T13:03:07.855Z,63.20
2019-01-03T13:05:49.870Z,64.10
2019-01-03T13:08:31.694Z,64.40
2019-01-03T13:11:13.954Z,64.50
2019-01-03T13:13:55.978Z,64.50
2019-01-03T13:16:37.803Z,65.10
2019-01-03T13:19:19.782Z,65.50
2019-01-03T13:22:02.099Z,66.80
2019-01-03T13:24:43.991Z,68.20
2019-01-03T13:27:26.050Z,68.30
2019-01-03T13:30:08.195Z,70.20
2019-01-03T13:32:49.925Z,70.80
2019-01-03T13:35:31.686Z,70.40
2019-01-03T13:38:14.058Z,71.00
2019-01-03T13:40:56.106Z,70.90
2019-01-03T13:43:38.990Z,71.30
2019-01-03T13:46:20.610Z,72.60
2019-01-03T13:49:02.417Z,74.00
2019-01-03T13:51:44.567Z,74.00
2019-01-03T13:54:26.639Z,74.20
2019-01-03T13:57:08.428Z,74.80
2019-01-03T13:59:50.074Z,75.90
2019-01-03T14:02:32.334Z,76.00
2019-01-03T14:05:14.118Z,74.90
2019-01-03T14:07:55.738Z,76.20
2019-01-03T14:10:37.285Z,77.50
2019-01-03T14:13:19.418Z,76.10
2019-01-03T14:16:01.889Z,76.40
2019-01-03T14:18:44.110Z,77.60
2019-01-03T14:21:25.954Z,79.50
2019-01-03T14:24:08.439Z,94.80
2019-01-03T14:26:50.354Z,90.80
2019-01-03T14:29:32.234Z,86.40
2019-01-03T14:32:02.517Z,88.90
2019-01-03T14:34:53.330Z,95.80
2019-01-03T14:37:37.226Z,93.30
2019-01-03T14:40:18.881Z,92.70
2019-01-03T14:43:00.738Z,92.10
2019-01-03T14:45:43.061Z,93.00
2019-01-03T14:48:25.615Z,94.40
2019-01-03T14:51:07.369Z,94.90
2019-01-03T14:53:49.333Z,95.20
2019-01-03T14:56:31.478Z,96.30
2019-01-03T14:59:13.766Z,97.60
2019-01-03T15:01:55.670Z,98.20
2019-01-03T15:04:38.058Z,99.30
2019-01-03T15:07:20.023Z,99.50
2019-01-03T15:10:01.802Z,99.90
2019-01-03T15:12:44.274Z,99.90
2019-01-03T15:15:26.317Z,99.90
2019-01-03T15:18:08.246Z,99.90
2019-01-03T15:20:50.374Z,99.90
2019-01-03T15:23:32.114Z,99.90
2019-01-03T15:26:13.843Z,99.90
2019-01-03T15:28:55.538Z,99.90
2019-01-03T15:31:36.018Z,99.90
2019-01-03T15:34:25.365Z,99.90
2019-01-03T15:37:09.239Z,99.90
2019-01-03T15:39:51.178Z,99.90
2019-01-03T15:42:32.834Z,99.90
2019-01-03T15:45:14.706Z,99.90
2019-01-03T15:47:56.510Z,99.90
2019-01-03T15:50:38.601Z,99.90
2019-01-03T15:53:20.377Z,99.90
2019-01-03T15:56:02.158Z,99.90
2019-01-03T15:58:43.957Z,99.90
2019-01-03T16:01:25.534Z,99.90
2019-01-03T16:04:07.757Z,99.90
2019-01-03T16:06:50.222Z,99.90
2019-01-03T16:09:32.526Z,99.90
2019-01-03T16:12:14.629Z,99.90
2019-01-03T16:14:56.391Z,99.90
2019-01-03T16:17:38.699Z,99.90
2019-01-03T16:20:20.591Z,99.90
2019-01-03T16:23:02.579Z,99.90
2019-01-03T16:25:44.506Z,99.90
2019-01-03T16:28:26.543Z,99.90
2019-01-03T16:31:08.662Z,99.90
2019-01-03T16:33:50.770Z,99.90
2019-01-03T16:36:33.105Z,99.90
2019-01-03T16:39:15.304Z,99.90
2019-01-03T16:41:57.287Z,99.90
2019-01-03T16:44:39.066Z,99.90
2019-01-03T16:47:20.766Z,99.90
2019-01-03T16:50:02.946Z,99.90
2019-01-03T16:52:44.726Z,99.90
2019-01-03T16:55:26.784Z,99.90
2019-01-03T16:58:08.526Z,99.90
2019-01-03T17:00:50.340Z,99.90
2019-01-03T17:03:32.506Z,99.90
2019-01-03T17:06:14.327Z,99.90
2019-01-03T17:08:56.810Z,99.90
2019-01-03T17:11:38.498Z,99.90
2019-01-03T17:14:20.479Z,99.90
2019-01-03T17:17:02.470Z,99.90
2019-01-03T17:19:44.614Z,99.90
2019-01-03T17:22:26.692Z,99.90
2019-01-03T17:25:10.593Z,99.90
2019-01-03T17:27:52.251Z,99.90
2019-01-03T17:30:33.950Z,99.90
2019-01-03T17:33:16.397Z,99.90
2019-01-03T17:35:58.923Z,99.90
2019-01-03T17:38:40.987Z,99.90
2019-01-03T17:41:23.194Z,99.90
2019-01-03T17:44:05.242Z,99.90
2019-01-03T17:46:47.324Z,99.90
2019-01-03T17:49:29.300Z,99.90
2019-01-03T17:51:59.658Z,99.90
2019-01-03T17:54:50.807Z,99.90
2019-01-03T17:57:33.005Z,99.90
2019-01-03T18:03:27.126Z,99.90
2019-01-03T18:06:09.477Z,99.90
2019-01-03T18:08:51.722Z,99.90
2019-01-03T18:11:33.602Z,99.90
2019-01-03T18:14:15.546Z,99.90
2019-01-03T18:16:57.295Z,99.90
2019-01-03T18:19:39.548Z,99.90
2019-01-03T18:22:21.314Z,99.90
2019-01-03T18:25:03.229Z,99.90
2019-01-03T18:27:45.375Z,99.90
2019-01-03T18:30:27.466Z,99.90
2019-01-03T18:33:10.709Z,99.90
2019-01-03T18:35:53.170Z,99.90
2019-01-03T18:38:35.017Z,99.90
2019-01-03T18:41:17.204Z,99.90
2019-01-03T18:43:59.379Z,99.90
2019-01-03T18:46:41.218Z,99.90
2019-01-03T18:49:23.398Z,99.90
2019-01-03T18:52:05.471Z,99.90
2019-01-03T18:54:47.410Z,99.90
2019-01-03T18:57:29.390Z,99.90
2019-01-03T19:00:11.654Z,99.90
2019-01-03T19:02:53.731Z,99.90
2019-01-03T19:05:35.938Z,99.90
2019-01-03T19:08:18.123Z,99.90
2019-01-03T19:11:00.134Z,99.90
2019-01-03T19:13:42.291Z,99.90
2019-01-03T19:16:24.033Z,99.90
2019-01-03T19:19:06.699Z,99.90
2019-01-03T19:21:48.539Z,99.90
2019-01-03T19:24:30.196Z,99.90
2019-01-03T19:27:12.400Z,99.90
2019-01-03T19:29:54.287Z,99.90
2019-01-03T19:32:34.858Z,99.90
2019-01-03T19:35:24.438Z,99.90
2019-01-03T19:38:07.538Z,99.90
2019-01-03T19:40:49.514Z,99.90
2019-01-03T19:43:31.834Z,99.90
2019-01-03T19:46:13.656Z,99.90
2019-01-03T19:48:55.668Z,99.90
2019-01-03T19:51:37.406Z,99.90
2019-01-03T19:54:19.293Z,99.90
2019-01-03T19:57:01.113Z,99.90
2019-01-03T19:59:43.171Z,99.90
2019-01-03T20:02:24.829Z,99.90
2019-01-03T20:05:06.653Z,99.90
2019-01-03T20:07:48.613Z,99.90
2019-01-03T20:10:30.426Z,99.90
2019-01-03T20:13:12.114Z,99.90
2019-01-03T20:15:54.076Z,99.90
2019-01-03T20:18:36.131Z,99.90
2019-01-03T20:21:18.390Z,99.90
2019-01-03T20:24:01.302Z,99.90
2019-01-03T20:26:43.957Z,99.90
2019-01-03T20:29:26.562Z,99.90
2019-01-03T20:32:09.166Z,99.90
2019-01-03T20:34:51.120Z,99.90
2019-01-03T20:37:33.180Z,99.90
2019-01-03T20:40:15.038Z,99.90
2019-01-03T20:42:58.374Z,99.90
2019-01-03T20:45:40.600Z,99.90
2019-01-03T20:48:31.458Z,99.90
2019-01-03T20:51:16.341Z,99.90
2019-01-03T20:53:59.058Z,99.90
2019-01-03T20:56:41.633Z,99.90
2019-01-03T20:59:23.291Z,99.90
2019-01-03T21:02:05.187Z,99.90
2019-01-03T21:04:47.162Z,99.90
2019-01-03T21:07:29.215Z,99.90
2019-01-03T21:10:10.943Z,99.90
2019-01-03T21:12:53.305Z,99.90
2019-01-03T21:15:35.769Z,99.90
2019-01-03T21:18:17.656Z,99.90
2019-01-03T21:20:59.824Z,99.90
2019-01-03T21:23:42.011Z,99.90
2019-01-03T21:26:24.082Z,99.90
2019-01-03T21:29:06.522Z,99.90
2019-01-03T21:31:48.546Z,99.90
2019-01-03T21:34:30.425Z,99.90
2019-01-03T21:37:12.335Z,99.90
2019-01-03T21:39:54.044Z,99.90
2019-01-03T21:42:36.461Z,99.90
2019-01-03T21:45:07.146Z,99.90
2019-01-03T21:47:58.186Z,99.90
2019-01-03T21:50:43.159Z,99.90
2019-01-03T21:53:13.704Z,99.90
2019-01-03T21:55:46.383Z,99.90
2019-01-03T21:58:29.868Z,99.90
2019-01-03T22:01:00.248Z,99.90
2019-01-03T22:03:50.230Z,99.90
2019-01-03T22:09:19.530Z,99.90
2019-01-03T22:12:01.118Z,99.90
2019-01-03T22:14:42.826Z,99.90
2019-01-03T22:17:24.543Z,99.90
2019-01-03T22:20:06.320Z,99.90
2019-01-03T22:22:48.404Z,99.90
2019-01-03T22:25:30.214Z,99.90
2019-01-03T22:28:12.342Z,99.90
2019-01-03T22:30:54.302Z,99.90
2019-01-03T22:33:36.079Z,99.90
2019-01-03T22:36:18.119Z,99.90
2019-01-03T22:39:00.045Z,99.90
2019-01-03T22:41:42.310Z,99.90
2019-01-03T22:44:24.239Z,99.90
2019-01-03T22:47:06.098Z,99.90
2019-01-03T22:49:47.948Z,99.90
2019-01-03T22:52:30.023Z,99.90
2019-01-03T22:55:13.010Z,99.90
2019-01-03T22:57:43.374Z,99.90
2019-01-03T23:00:34.070Z,99.90
2019-01-03T23:03:16.098Z,99.90
2019-01-03T23:05:59.044Z,99.90
2019-01-03T23:08:40.965Z,99.90
2019-01-03T23:11:22.798Z,99.90
2019-01-03T23:14:04.618Z,99.90
2019-01-03T23:16:47.047Z,99.90
2019-01-03T23:19:28.942Z,99.90
2019-01-03T23:22:10.665Z,99.90
2019-01-03T23:24:52.701Z,99.90
2019-01-03T23:27:34.434Z,99.90
2019-01-03T23:30:16.425Z,99.90
2019-01-03T23:32:58.497Z,99.90
2019-01-03T23:35:40.114Z,99.90
2019-01-03T23:38:22.078Z,99.90
2019-01-03T23:41:03.894Z,99.90
2019-01-03T23:43:45.787Z,99.90
2019-01-03T23:46:27.544Z,99.90
2019-01-03T23:49:09.606Z,99.90
2019-01-03T23:51:51.395Z,99.90
2019-01-03T23:54:33.106Z,99.90
2019-01-03T23:57:14.914Z,99.90
2019-01-03T23:59:56.746Z,99.90
